Time;durP1;ratioP1;P1;durP2;ratioP2;P2;SDS_P1;SDS_P2;PMS_P1;PMS_P2;Temp;Humidity;BMP_temperature;BMP_pressure;BME280_temperature;BME280_humidity;BME280_pressure;Samples;Min_cycle;Max_cycle;Signal;HPM_P1;HPM_P2
2022/07/01 00:01:59;;;;;;;8.95;1.73;;;15.00;99.90;;;;;;5072394;28;20045;-69
2022/07/01 00:04:27;;;;;;;5.68;1.70;;;16.00;99.90;;;;;;5076576;28;20074;-69
2022/07/01 00:06:54;;;;;;;5.45;1.70;;;;;;;;;;5073608;28;20037;-69
2022/07/01 00:09:20;;;;;;;8.52;1.95;;;;;;;;;;5057798;28;20040;-69
2022/07/01 00:11:46;;;;;;;4.40;1.88;;;16.90;99.90;;;;;;5049127;28;20044;-69
2022/07/01 00:14:11;;;;;;;8.13;2.55;;;15.30;99.90;;;;;;5043581;28;20040;-69
2022/07/01 00:16:37;;;;;;;6.25;2.42;;;16.60;99.90;;;;;;5063977;28;20041;-69
2022/07/01 00:19:03;;;;;;;9.52;2.70;;;16.20;99.90;;;;;;5055353;28;20056;-69
2022/07/01 00:21:29;;;;;;;6.78;2.70;;;16.00;99.90;;;;;;5060978;28;20052;-69
2022/07/01 00:23:55;;;;;;;8.88;2.88;;;15.00;99.90;;;;;;5073487;28;20139;-69
2022/07/01 00:26:21;;;;;;;7.22;3.08;;;16.30;99.90;;;;;;5070664;28;20481;-69
2022/07/01 00:28:47;;;;;;;5.32;2.60;;;;;;;;;;5054948;28;20439;-69
2022/07/01 00:31:13;;;;;;;9.65;2.90;;;;;;;;;;5057800;28;20046;-68
2022/07/01 00:33:38;;;;;;;10.05;3.28;;;15.80;99.90;;;;;;5055046;28;20037;-69
2022/07/01 00:36:04;;;;;;;7.43;2.67;;;16.00;99.90;;;;;;5056031;28;20559;-69
2022/07/01 00:38:31;;;;;;;4.55;2.55;;;;;;;;;;5055804;28;20047;-69
2022/07/01 00:40:57;;;;;;;6.20;2.90;;;;;;;;;;5054717;28;20079;-68
2022/07/01 00:43:24;;;;;;;7.93;2.80;;;;;;;;;;5071313;28;20051;-69
2022/07/01 00:45:53;;;;;;;6.22;3.05;;;17.00;99.90;;;;;;5074497;28;20515;-69
2022/07/01 00:48:20;;;;;;;7.00;3.05;;;15.80;99.90;;;;;;5058783;28;20037;-69
2022/07/01 00:50:47;;;;;;;8.00;3.10;;;;;;;;;;5054402;28;20546;-68
2022/07/01 00:53:14;;;;;;;5.07;2.10;;;16.40;99.90;;;;;;5066955;28;20048;-69
2022/07/01 00:55:43;;;;;;;7.00;2.50;;;15.80;99.90;;;;;;5056446;28;20052;-69
2022/07/01 00:58:09;;;;;;;4.88;2.20;;;14.70;99.90;;;;;;5065706;28;20052;-69
2022/07/01 01:00:38;;;;;;;7.45;2.30;;;15.80;99.90;;;;;;5074219;28;20097;-69
2022/07/01 01:03:07;;;;;;;8.80;2.10;;;14.90;99.90;;;;;;5068705;28;20059;-69
2022/07/01 01:05:34;;;;;;;4.32;2.20;;;15.80;99.90;;;;;;5074083;28;20047;-68
2022/07/01 01:07:59;;;;;;;5.88;2.25;;;15.60;99.90;;;;;;5066506;28;20044;-68
2022/07/01 01:10:27;;;;;;;4.40;2.40;;;15.70;99.90;;;;;;5037447;28;20044;-69
2022/07/01 01:12:53;;;;;;;9.50;2.50;;;;;;;;;;5059715;28;20037;-69
2022/07/01 01:15:19;;;;;;;6.40;2.75;;;15.70;99.90;;;;;;5073934;28;20045;-69
2022/07/01 01:17:48;;;;;;;7.40;2.45;;;;;;;;;;5072011;28;20036;-69
2022/07/01 01:20:19;;;;;;;7.22;2.83;;;15.70;99.90;;;;;;5073553;28;20477;-69
2022/07/01 01:22:46;;;;;;;4.82;2.83;;;;;;;;;;5069336;28;20048;-68
2022/07/01 01:25:12;;;;;;;6.72;2.88;;;16.30;99.90;;;;;;5053722;28;20041;-68
2022/07/01 01:27:38;;;;;;;8.73;3.75;;;15.10;99.90;;;;;;5040028;28;20040;-68
2022/07/01 01:30:08;;;;;;;9.35;3.67;;;15.50;99.90;;;;;;5053810;28;20036;-68
2022/07/01 01:32:34;;;;;;;8.25;4.50;;;;;;;;;;5054837;28;20064;-69
2022/07/01 01:35:01;;;;;;;9.27;4.35;;;15.00;99.90;;;;;;5054927;28;20460;-68
2022/07/01 01:37:27;;;;;;;8.90;4.47;;;16.80;99.90;;;;;;5053503;28;20059;-69
2022/07/01 01:39:53;;;;;;;7.35;4.45;;;15.80;99.90;;;;;;5069754;28;20127;-68
2022/07/01 01:42:20;;;;;;;6.88;4.40;;;;;;;;;;5073249;28;20041;-69
2022/07/01 01:44:46;;;;;;;6.70;4.35;;;;;;;;;;5058534;28;20041;-69
2022/07/01 01:47:11;;;;;;;8.50;4.53;;;15.90;99.90;;;;;;5053353;28;20040;-69
2022/07/01 01:49:37;;;;;;;9.55;4.90;;;14.70;99.90;;;;;;5078234;28;20499;-68
2022/07/01 01:52:03;;;;;;;10.90;5.35;;;15.30;99.90;;;;;;5054795;28;20055;-68
2022/07/01 01:54:29;;;;;;;11.25;5.13;;;;;;;;;;5055318;28;20049;-68
2022/07/01 01:56:55;;;;;;;13.73;5.10;;;14.70;99.90;;;;;;5053155;28;20095;-68
2022/07/01 01:59:21;;;;;;;10.38;5.70;;;16.10;99.90;;;;;;5054117;28;20048;-68
2022/07/01 02:01:47;;;;;;;11.77;5.30;;;15.80;99.90;;;;;;5036763;28;20060;-68
2022/07/01 02:04:13;;;;;;;19.90;5.80;;;;;;;;;;5055348;28;20473;-69
2022/07/01 02:06:40;;;;;;;9.32;5.47;;;15.40;99.90;;;;;;5054408;28;20404;-68
2022/07/01 02:09:07;;;;;;;8.85;4.97;;;16.40;99.90;;;;;;5055834;28;20469;-68
2022/07/01 02:11:33;;;;;;;10.38;5.13;;;;;;;;;;5073219;28;20044;-68
2022/07/01 02:13:59;;;;;;;10.02;5.10;;;;;;;;;;5071341;28;20058;-68
2022/07/01 02:16:25;;;;;;;9.98;5.40;;;;;;;;;;5036232;28;20049;-68
2022/07/01 02:18:51;;;;;;;6.13;4.50;;;;;;;;;;5052826;28;20102;-68
2022/07/01 02:21:17;;;;;;;8.45;4.93;;;;;;;;;;5072005;28;20127;-68
2022/07/01 02:23:43;;;;;;;7.53;4.85;;;;;;;;;;5056464;28;20067;-68
2022/07/01 02:26:09;;;;;;;12.45;5.20;;;;;;;;;;5070808;28;20037;-68
2022/07/01 02:28:35;;;;;;;7.47;4.32;;;;;;;;;;5072486;28;20094;-68
2022/07/01 02:31:02;;;;;;;8.68;4.82;;;;;;;;;;5057043;28;20052;-68
2022/07/01 02:33:28;;;;;;;10.77;4.50;;;;;;;;;;5052647;28;20513;-68
2022/07/01 02:35:55;;;;;;;11.38;4.70;;;;;;;;;;5054879;28;20431;-68
2022/07/01 02:38:21;;;;;;;10.82;4.72;;;;;;;;;;5052596;28;20045;-68
2022/07/01 02:40:47;;;;;;;10.10;4.53;;;;;;;;;;5053525;28;20047;-68
2022/07/01 02:43:12;;;;;;;8.60;4.25;;;15.40;99.90;;;;;;5052327;28;20124;-68
2022/07/01 02:45:39;;;;;;;12.32;4.82;;;;;;;;;;5060836;28;20119;-69
2022/07/01 02:48:05;;;;;;;6.53;4.05;;;14.50;99.90;;;;;;5072365;28;20044;-69
2022/07/01 02:50:31;;;;;;;11.00;4.60;;;;;;;;;;5066393;28;20125;-68
2022/07/01 02:52:58;;;;;;;9.18;4.35;;;;;;;;;;5052187;28;20040;-68
2022/07/01 02:55:23;;;;;;;5.90;3.97;;;16.30;99.90;;;;;;5056128;28;20032;-68
2022/07/01 02:57:51;;;;;;;8.15;4.55;;;15.50;99.90;;;;;;5072355;28;20105;-68
2022/07/01 03:00:18;;;;;;;7.53;5.15;;;15.60;99.90;;;;;;5069539;28;20568;-68
2022/07/01 03:02:44;;;;;;;6.72;5.13;;;;;;;;;;5072205;28;20093;-68
2022/07/01 03:05:11;;;;;;;12.75;5.65;;;14.60;99.90;;;;;;5054779;28;20043;-68
2022/07/01 03:07:38;;;;;;;13.63;6.20;;;15.60;99.90;;;;;;5071725;28;20063;-68
2022/07/01 03:10:04;;;;;;;15.30;5.75;;;15.70;99.90;;;;;;5072265;28;20508;-68
2022/07/01 03:12:34;;;;;;;12.07;6.93;;;;;;;;;;5054015;28;20116;-68
2022/07/01 03:15:05;;;;;;;12.27;7.00;;;16.60;99.90;;;;;;5051861;28;20056;-68
2022/07/01 03:17:32;;;;;;;9.98;6.45;;;15.50;99.90;;;;;;5069926;28;20040;-69
2022/07/01 03:19:58;;;;;;;13.13;7.63;;;15.60;99.90;;;;;;5071845;28;20040;-68
2022/07/01 03:22:26;;;;;;;17.63;7.68;;;15.50;99.90;;;;;;5065617;28;20094;-69
2022/07/01 03:24:53;;;;;;;13.90;7.45;;;;;;;;;;5071964;28;20067;-68
2022/07/01 03:27:20;;;;;;;19.23;8.30;;;15.60;99.90;;;;;;5057285;28;20036;-68
2022/07/01 03:29:46;;;;;;;15.88;8.43;;;16.60;99.90;;;;;;5051891;28;20041;-68
2022/07/01 03:32:12;;;;;;;12.85;7.28;;;15.60;99.90;;;;;;5064403;28;20058;-68
2022/07/01 03:34:39;;;;;;;15.85;8.60;;;14.60;99.90;;;;;;5071758;28;20481;-69
2022/07/01 03:37:06;;;;;;;15.40;7.88;;;16.60;99.90;;;;;;5061510;28;20191;-69
2022/07/01 03:39:32;;;;;;;16.30;8.38;;;;;;;;;;5053035;28;20107;-68
2022/07/01 03:41:58;;;;;;;17.88;7.60;;;14.90;99.90;;;;;;5054079;28;20565;-68
2022/07/01 03:44:24;;;;;;;15.73;6.93;;;;;;;;;;5052955;28;20123;-68
2022/07/01 03:46:50;;;;;;;15.52;7.43;;;;;;;;;;5052816;28;20378;-68
2022/07/01 03:49:16;;;;;;;19.30;6.90;;;;;;;;;;5051662;28;20037;-68
2022/07/01 03:51:42;;;;;;;14.10;6.45;;;16.30;99.90;;;;;;5054006;28;20047;-68
2022/07/01 03:56:53;;;;;;;12.07;6.38;;;;;;;;;;5068631;28;20045;-69
2022/07/01 03:59:19;;;;;;;18.90;6.38;;;;;;;;;;5034974;28;20410;-69
2022/07/01 04:01:45;;;;;;;10.20;5.75;;;;;;;;;;5052691;28;20508;-68
2022/07/01 04:04:11;;;;;;;13.88;5.80;;;;;;;;;;5051602;28;20041;-69
2022/07/01 04:06:37;;;;;;;12.63;5.47;;;16.00;99.90;;;;;;5052637;28;20558;-68
2022/07/01 04:09:03;;;;;;;14.95;5.32;;;;;;;;;;5070006;28;20493;-68
2022/07/01 04:11:29;;;;;;;10.73;4.90;;;15.50;99.90;;;;;;5072620;28;20469;-69
2022/07/01 04:13:55;;;;;;;16.10;6.22;;;16.10;99.90;;;;;;5046268;28;20490;-68
2022/07/01 04:16:22;;;;;;;15.77;5.35;;;15.10;99.90;;;;;;5051263;28;20052;-68
2022/07/01 04:18:49;;;;;;;11.68;5.07;;;15.90;99.90;;;;;;5064917;28;20474;-68
2022/07/01 04:24:00;;;;;;;15.20;4.28;;;15.20;99.90;;;;;;5042954;28;20080;-68
2022/07/01 04:26:26;;;;;;;14.02;4.57;;;15.30;99.90;;;;;;5060009;28;20079;-68
2022/07/01 04:28:53;;;;;;;15.40;4.38;;;15.20;99.90;;;;;;5059068;28;20044;-68
2022/07/01 04:31:19;;;;;;;10.90;4.65;;;15.20;99.90;;;;;;5074823;28;20036;-68
2022/07/01 04:33:46;;;;;;;12.40;4.20;;;15.40;99.90;;;;;;5064503;28;20492;-68
2022/07/01 04:36:12;;;;;;;12.13;4.28;;;;;;;;;;5038411;28;20395;-68
2022/07/01 04:38:38;;;;;;;16.00;3.90;;;;;;;;;;5062462;28;20127;-68
2022/07/01 04:43:48;;;;;;;12.65;3.15;;;;;;;;;;5063595;28;20477;-68
2022/07/01 04:46:14;;;;;;;12.13;3.20;;;16.30;99.90;;;;;;5074730;28;20120;-68
2022/07/01 04:48:40;;;;;;;12.18;3.40;;;16.30;99.90;;;;;;5068767;28;20116;-68
2022/07/01 04:51:06;;;;;;;15.57;3.20;;;;;;;;;;5055888;28;20044;-68
2022/07/01 04:53:32;;;;;;;9.95;3.35;;;15.60;99.90;;;;;;5059771;28;20434;-68
2022/07/01 04:55:58;;;;;;;10.68;2.63;;;15.70;99.90;;;;;;5074321;28;20098;-68
2022/07/01 04:58:24;;;;;;;13.68;3.10;;;;;;;;;;5070793;28;20060;-68
2022/07/01 05:00:51;;;;;;;9.38;3.53;;;15.20;99.90;;;;;;5064363;28;20054;-68
2022/07/01 05:03:17;;;;;;;14.30;2.95;;;15.00;99.90;;;;;;5059531;28;20044;-68
2022/07/01 05:05:43;;;;;;;16.48;2.97;;;16.30;99.90;;;;;;5072943;28;20041;-68
2022/07/01 05:08:08;;;;;;;10.85;3.20;;;14.50;99.90;;;;;;5075435;28;20029;-69
2022/07/01 05:10:34;;;;;;;8.75;3.50;;;15.30;99.90;;;;;;5056811;28;20043;-68
2022/07/01 05:13:00;;;;;;;11.65;3.67;;;;;;;;;;5055284;28;20053;-68
2022/07/01 05:15:26;;;;;;;11.65;3.60;;;;;;;;;;5037959;28;20056;-68
2022/07/01 05:23:21;;;;;;;16.63;4.10;;;;;;;;;;5053577;28;20056;-68
2022/07/01 05:25:47;;;;;;;18.17;4.10;;;15.40;99.90;;;;;;5068509;28;20085;-68
2022/07/01 05:28:13;;;;;;;18.63;5.00;;;14.20;99.90;;;;;;5057423;28;20119;-68
2022/07/01 05:30:39;;;;;;;18.00;4.35;;;14.30;99.90;;;;;;5055642;28;20484;-68
2022/07/01 05:33:05;;;;;;;14.20;4.70;;;;;;;;;;5073650;28;20440;-68
2022/07/01 05:35:31;;;;;;;12.15;4.32;;;;;;;;;;5062990;28;20044;-68
2022/07/01 05:37:57;;;;;;;16.58;4.95;;;15.40;99.90;;;;;;5053679;28;20098;-68
2022/07/01 05:40:22;;;;;;;17.67;4.93;;;15.20;99.90;;;;;;5055741;28;20481;-68
2022/07/01 05:42:48;;;;;;;13.73;4.55;;;16.10;99.90;;;;;;5064893;28;20040;-68
2022/07/01 05:45:14;;;;;;;14.73;4.78;;;;;;;;;;5068714;28;20033;-68
2022/07/01 05:47:41;;;;;;;14.02;5.28;;;;;;;;;;5086836;28;20064;-70
2022/07/01 05:50:07;;;;;;;13.32;5.68;;;15.60;99.90;;;;;;5039963;28;20433;-70
2022/07/01 05:52:33;;;;;;;24.30;8.45;;;;;;;;;;5056692;28;20128;-70
2022/07/01 05:54:59;;;;;;;15.30;7.18;;;;;;;;;;5071382;28;20041;-70
2022/07/01 05:57:25;;;;;;;21.63;9.32;;;;;;;;;;5058179;28;20049;-69
2022/07/01 05:59:50;;;;;;;23.52;9.68;;;15.10;99.90;;;;;;5072793;28;20059;-70
2022/07/01 06:02:16;;;;;;;22.77;10.13;;;;;;;;;;5037074;28;20116;-70
2022/07/01 06:04:43;;;;;;;24.70;11.40;;;;;;;;;;5086798;28;20037;-70
2022/07/01 06:07:10;;;;;;;23.00;10.95;;;;;;;;;;5046113;28;20036;-70
2022/07/01 06:09:36;;;;;;;31.05;11.80;;;;;;;;;;5070886;28;20037;-70
2022/07/01 06:12:03;;;;;;;26.40;11.73;;;;;;;;;;5056286;28;20048;-70
2022/07/01 06:14:29;;;;;;;35.70;11.75;;;;;;;;;;5053254;28;20041;-70
2022/07/01 06:16:55;;;;;;;27.05;12.85;;;;;;;;;;5076050;28;20047;-70
2022/07/01 06:19:21;;;;;;;33.17;11.65;;;;;;;;;;5035642;28;20045;-70
2022/07/01 06:21:46;;;;;;;33.30;12.77;;;15.70;99.90;;;;;;5062801;28;20492;-70
2022/07/01 06:24:12;;;;;;;35.22;13.88;;;15.90;99.90;;;;;;5070618;28;20119;-70
2022/07/01 06:26:38;;;;;;;35.28;11.80;;;16.00;99.90;;;;;;5069397;28;20075;-70
2022/07/01 06:29:04;;;;;;;29.52;12.77;;;;;;;;;;5072708;28;20078;-70
2022/07/01 06:31:33;;;;;;;34.13;13.23;;;;;;;;;;5070638;28;20532;-74
2022/07/01 06:33:59;;;;;;;32.70;13.07;;;;;;;;;;5058249;28;20037;-70
2022/07/01 06:36:24;;;;;;;34.63;13.45;;;16.80;99.90;;;;;;5058869;28;20546;-70
2022/07/01 06:38:50;;;;;;;29.42;12.02;;;;;;;;;;5073646;28;20036;-70
2022/07/01 06:41:29;;;;;;;32.80;13.15;;;;;;;;;;5072937;28;20554;-69
2022/07/01 06:43:59;;;;;;;28.65;12.05;;;17.00;99.90;;;;;;5055078;28;20127;-70
2022/07/01 06:46:26;;;;;;;28.02;12.55;;;16.00;99.90;;;;;;5054518;28;20049;-70
2022/07/01 06:48:52;;;;;;;32.10;12.02;;;14.90;99.90;;;;;;5072055;28;20048;-70
2022/07/01 06:51:19;;;;;;;28.20;11.02;;;;;;;;;;5056792;28;20041;-69
2022/07/01 06:53:46;;;;;;;26.85;10.07;;;;;;;;;;5072324;28;20386;-70
2022/07/01 06:56:13;;;;;;;27.13;9.82;;;16.00;99.90;;;;;;5056626;28;20047;-70
2022/07/01 06:58:39;;;;;;;30.92;9.35;;;15.80;99.90;;;;;;5070920;28;20088;-70
2022/07/01 07:01:05;;;;;;;28.45;10.32;;;;;;;;;;5072146;28;20060;-70
2022/07/01 07:03:32;;;;;;;24.77;9.05;;;;;;;;;;5057934;28;20044;-70
2022/07/01 07:06:02;;;;;;;29.85;9.13;;;16.20;99.90;;;;;;5072223;28;20036;-69
2022/07/01 07:08:32;;;;;;;26.15;8.70;;;15.30;99.90;;;;;;5054586;28;20032;-70
2022/07/01 07:10:58;;;;;;;24.05;7.97;;;15.60;99.90;;;;;;5064215;28;20123;-70
2022/07/01 07:13:25;;;;;;;22.45;8.57;;;;;;;;;;5066286;28;20051;-70
2022/07/01 07:15:50;;;;;;;25.50;7.80;;;16.80;99.90;;;;;;5072051;28;20044;-70
2022/07/01 07:18:16;;;;;;;15.98;6.80;;;17.20;99.90;;;;;;5060687;28;20048;-70
2022/07/01 07:20:42;;;;;;;27.70;6.43;;;16.40;99.90;;;;;;5051871;28;20401;-70
2022/07/01 07:23:08;;;;;;;19.45;6.40;;;17.10;99.90;;;;;;5060707;28;20086;-70
2022/07/01 07:25:34;;;;;;;23.65;6.43;;;16.00;99.90;;;;;;5071435;28;20037;-70
2022/07/01 07:28:00;;;;;;;19.35;6.18;;;15.90;99.90;;;;;;5064321;28;20048;-70
2022/07/01 07:30:26;;;;;;;19.33;6.07;;;;;;;;;;5053135;28;20120;-70
2022/07/01 07:32:52;;;;;;;21.60;5.38;;;;;;;;;;5060737;28;20044;-70
2022/07/01 07:35:18;;;;;;;16.63;5.63;;;;;;;;;;5035230;28;20036;-70
2022/07/01 07:37:45;;;;;;;13.88;5.72;;;17.40;99.90;;;;;;5066683;28;20043;-70
2022/07/01 07:40:13;;;;;;;31.20;5.60;;;18.00;99.90;;;;;;5051877;28;20485;-70
2022/07/01 07:42:40;;;;;;;18.33;4.78;;;17.00;99.90;;;;;;5054357;28;20055;-70
2022/07/01 07:45:07;;;;;;;15.07;4.57;;;16.40;99.90;;;;;;5060341;28;20037;-70
2022/07/01 07:47:34;;;;;;;12.35;4.10;;;17.40;99.90;;;;;;5071703;28;20106;-70
2022/07/01 07:50:00;;;;;;;21.52;4.53;;;17.40;99.90;;;;;;5053422;28;20532;-70
2022/07/01 07:52:25;;;;;;;17.25;4.00;;;17.40;99.90;;;;;;5071703;28;20123;-70
2022/07/01 07:54:51;;;;;;;15.20;3.35;;;;;;;;;;5056316;28;20102;-70
2022/07/01 07:57:17;;;;;;;13.40;3.40;;;;;;;;;;5035243;28;20439;-70
2022/07/01 07:59:44;;;;;;;7.80;3.05;;;;;;;;;;5060736;28;20056;-70
2022/07/01 08:02:10;;;;;;;19.08;3.72;;;;;;;;;;5054891;28;20041;-70
2022/07/01 08:04:35;;;;;;;14.15;3.28;;;17.50;99.90;;;;;;5073680;28;20040;-69
2022/07/01 08:07:01;;;;;;;18.00;3.78;;;;;;;;;;5073543;28;20170;-70
2022/07/01 08:09:27;;;;;;;16.35;3.22;;;18.00;99.90;;;;;;5074183;28;20040;-70
2022/07/01 08:11:53;;;;;;;19.40;3.38;;;17.80;99.90;;;;;;5075188;28;20048;-70
2022/07/01 08:14:19;;;;;;;17.80;3.60;;;18.60;99.90;;;;;;5073740;28;20037;-70
2022/07/01 08:16:44;;;;;;;16.80;3.42;;;16.90;99.90;;;;;;5075052;28;20499;-70
2022/07/01 08:19:10;;;;;;;21.88;3.30;;;18.40;99.90;;;;;;5067024;28;20044;-70
2022/07/01 08:21:36;;;;;;;16.25;3.33;;;;;;;;;;5054976;28;20048;-69
2022/07/01 08:24:02;;;;;;;12.07;2.85;;;18.60;99.90;;;;;;5041508;28;20032;-69
2022/07/01 08:26:28;;;;;;;14.18;3.05;;;17.90;99.90;;;;;;5055021;28;20129;-69
2022/07/01 08:28:54;;;;;;;16.20;3.70;;;;;;;;;;5058275;28;20047;-70
2022/07/01 08:31:20;;;;;;;14.93;3.55;;;17.60;99.90;;;;;;5066096;28;20119;-70
2022/07/01 08:33:46;;;;;;;14.60;3.50;;;17.50;99.90;;;;;;5070586;28;20119;-70
2022/07/01 08:36:13;;;;;;;17.90;3.20;;;18.10;99.90;;;;;;5061849;28;20036;-70
2022/07/01 08:38:40;;;;;;;16.15;3.47;;;;;;;;;;5067367;28;20040;-70
2022/07/01 08:41:06;;;;;;;12.50;3.60;;;;;;;;;;5055063;28;20076;-70
2022/07/01 08:43:34;;;;;;;17.10;3.88;;;18.90;99.90;;;;;;5054452;28;20103;-69
2022/07/01 08:46:03;;;;;;;15.45;3.30;;;18.40;99.90;;;;;;5070282;28;20087;-70
2022/07/01 08:48:29;;;;;;;11.75;3.70;;;;;;;;;;5071823;28;20041;-70
2022/07/01 08:50:55;;;;;;;15.23;3.97;;;18.30;99.90;;;;;;5071645;28;20044;-70
2022/07/01 08:53:21;;;;;;;16.85;3.50;;;18.00;99.90;;;;;;5063944;28;20075;-70
2022/07/01 08:58:31;;;;;;;13.70;3.20;;;19.20;99.90;;;;;;5064372;28;20119;-70
2022/07/01 09:01:17;;;;;;;12.30;3.00;;;18.80;99.90;;;;;;5070453;28;20076;-70
2022/07/01 09:03:45;;;;;;;11.20;3.03;;;18.60;99.90;;;;;;5068065;28;20612;-70
2022/07/01 09:06:16;;;;;;;16.60;3.28;;;19.50;99.90;;;;;;5054371;28;20053;-70
2022/07/01 09:08:43;;;;;;;14.27;3.58;;;19.20;99.90;;;;;;5056542;28;20041;-70
2022/07/01 09:11:17;;;;;;;21.83;3.20;;;19.40;99.90;;;;;;5070955;28;20036;-69
2022/07/01 09:13:45;;;;;;;14.75;3.53;;;18.80;98.10;;;;;;5068616;28;20093;-76
2022/07/01 09:16:15;;;;;;;10.50;3.30;;;18.60;98.20;;;;;;5069484;28;20044;-71
2022/07/01 09:19:00;;;;;;;14.02;2.75;;;19.60;99.90;;;;;;5063973;28;20099;-69
2022/07/01 09:21:29;;;;;;;11.85;3.20;;;18.80;98.00;;;;;;5053830;28;20081;-69
2022/07/01 09:23:55;;;;;;;12.80;2.95;;;19.50;99.90;;;;;;5061856;28;20078;-68
2022/07/01 09:26:22;;;;;;;12.05;2.95;;;;;;;;;;5040374;28;20052;-68
2022/07/01 09:28:59;;;;;;;14.68;2.55;;;18.30;99.90;;;;;;5073564;28;20072;-68
2022/07/01 09:31:35;;;;;;;13.38;2.85;;;19.20;99.90;;;;;;5073580;28;20049;-68
2022/07/01 09:34:08;;;;;;;14.77;3.00;;;18.60;99.90;;;;;;5044686;28;20039;-69
2022/07/01 09:36:41;;;;;;;11.77;2.58;;;18.90;96.80;;;;;;5055819;28;20054;-69
2022/07/01 09:39:07;;;;;;;9.65;2.58;;;17.80;99.80;;;;;;5061314;28;20029;-69
2022/07/01 09:41:37;;;;;;;8.48;2.38;;;19.40;99.90;;;;;;5054759;28;20031;-69
2022/07/01 09:44:09;;;;;;;8.27;2.10;;;18.50;99.80;;;;;;5057383;28;20505;-69
2022/07/01 09:46:35;;;;;;;;;;;18.60;96.70;;;;;;5063947;28;20037;-69
2022/07/01 09:49:01;;;;;;;8.63;2.50;;;19.30;99.90;;;;;;5060709;28;20018;-69
2022/07/01 09:51:28;;;;;;;9.15;2.70;;;;;;;;;;5062490;28;20143;-69
2022/07/01 09:53:56;;;;;;;6.45;2.10;;;18.70;99.90;;;;;;5053644;28;20045;-69
2022/07/01 09:56:25;;;;;;;15.35;2.95;;;19.20;99.90;;;;;;5046559;28;20044;-69
2022/07/01 09:58:51;;;;;;;11.25;2.90;;;19.20;99.90;;;;;;5061961;28;20049;-69
2022/07/01 10:01:17;;;;;;;12.80;2.70;;;17.70;99.90;;;;;;5058346;28;20045;-69
2022/07/01 10:03:43;;;;;;;9.65;2.50;;;;;;;;;;5055401;28;20048;-69
2022/07/01 10:06:37;;;;;;;12.27;2.70;;;17.50;99.30;;;;;;5060375;28;20033;-69
2022/07/01 10:09:24;;;;;;;10.43;2.17;;;18.10;99.90;;;;;;5053189;28;20086;-69
2022/07/01 10:12:10;;;;;;;10.88;2.33;;;17.70;96.60;;;;;;5063113;28;20041;-69
2022/07/01 10:14:38;;;;;;;16.40;2.53;;;18.30;99.90;;;;;;5044052;28;20041;-69
2022/07/01 10:17:06;;;;;;;6.68;2.50;;;19.10;99.90;;;;;;5057402;28;20052;-69
2022/07/01 10:19:33;;;;;;;8.07;2.45;;;18.00;99.90;;;;;;5054351;28;20423;-69
2022/07/01 10:22:26;;;;;;;11.77;2.97;;;18.50;96.70;;;;;;5055944;28;20115;-69
2022/07/01 10:24:51;;;;;;;7.75;2.45;;;18.30;98.50;;;;;;5056719;28;20061;-69
2022/07/01 10:27:23;;;;;;;12.73;3.40;;;19.90;96.40;;;;;;5054406;28;20515;-69
2022/07/01 10:29:49;;;;;;;8.87;2.60;;;;;;;;;;5056056;28;20033;-69
2022/07/01 10:32:21;;;;;;;9.45;2.72;;;20.10;99.90;;;;;;5057954;28;20045;-69
2022/07/01 10:34:46;;;;;;;7.60;2.75;;;18.80;99.80;;;;;;5040114;28;20040;-69
2022/07/01 10:37:13;;;;;;;13.05;3.35;;;19.30;95.70;;;;;;5056136;28;20370;-69
2022/07/01 10:39:54;;;;;;;11.27;2.65;;;19.80;99.90;;;;;;5055011;28;20492;-69
2022/07/01 10:42:20;;;;;;;8.07;2.85;;;;;;;;;;5054334;28;20044;-69
2022/07/01 10:45:11;;;;;;;15.20;3.40;;;18.10;99.20;;;;;;5054580;28;20040;-69
2022/07/01 10:47:39;;;;;;;13.95;2.80;;;17.80;99.50;;;;;;5056210;28;20071;-68
2022/07/01 10:50:13;;;;;;;7.55;2.50;;;18.90;95.50;;;;;;5057349;28;20045;-68
2022/07/01 10:52:39;;;;;;;7.95;2.50;;;;;;;;;;5056775;28;20049;-68
2022/07/01 10:55:09;;;;;;;7.80;1.98;;;19.10;94.80;;;;;;5054158;28;20713;-68
2022/07/01 10:57:40;;;;;;;11.93;3.45;;;19.60;99.10;;;;;;5042945;28;20131;-68
2022/07/01 11:00:05;;;;;;;5.13;2.50;;;19.50;99.20;;;;;;5055975;28;20065;-68
2022/07/01 11:02:36;;;;;;;7.15;2.60;;;19.20;98.40;;;;;;5053786;28;20098;-68
2022/07/01 11:05:10;;;;;;;6.35;2.35;;;18.20;98.20;;;;;;5053592;28;20048;-68
2022/07/01 11:07:39;;;;;;;7.93;2.22;;;19.10;98.30;;;;;;5057921;28;20397;-68
2022/07/01 11:10:07;;;;;;;6.47;2.55;;;20.00;98.30;;;;;;5057534;28;20573;-68
2022/07/01 11:12:33;;;;;;;9.27;2.47;;;18.30;97.90;;;;;;5056645;28;20075;-68
2022/07/01 11:15:01;;;;;;;8.88;2.97;;;19.40;98.20;;;;;;5055611;28;20037;-68
2022/07/01 11:17:28;;;;;;;11.73;2.40;;;20.20;98.10;;;;;;5056770;28;20048;-68
2022/07/01 11:19:59;;;;;;;9.98;2.28;;;19.40;92.70;;;;;;5055060;28;20133;-68
2022/07/01 11:22:27;;;;;;;6.55;2.38;;;19.60;94.20;;;;;;5054878;28;20067;-68
2022/07/01 11:24:56;;;;;;;8.27;2.30;;;20.60;97.70;;;;;;5053538;28;20045;-68
2022/07/01 11:27:22;;;;;;;11.02;2.70;;;20.60;93.80;;;;;;5054724;28;20068;-68
2022/07/01 11:29:55;;;;;;;8.80;2.75;;;20.50;96.20;;;;;;5056008;28;20481;-68
2022/07/01 11:32:26;;;;;;;8.80;2.55;;;20.20;96.10;;;;;;5056728;28;20049;-68
2022/07/01 11:34:52;;;;;;;10.43;3.55;;;20.00;96.60;;;;;;5055959;28;20051;-68
2022/07/01 11:40:13;;;;;;;14.73;3.28;;;19.20;97.10;;;;;;5059713;28;20143;-68
2022/07/01 11:42:40;;;;;;;9.73;2.20;;;20.40;95.60;;;;;;5060304;28;20036;-68
2022/07/01 11:45:07;;;;;;;8.35;2.53;;;20.00;92.60;;;;;;5054474;28;20119;-68
2022/07/01 11:47:33;;;;;;;8.60;2.63;;;21.00;96.40;;;;;;5058956;28;20099;-68
2022/07/01 11:50:00;;;;;;;23.77;2.65;;;21.00;95.90;;;;;;5060156;28;20444;-68
2022/07/01 11:52:27;;;;;;;13.68;2.60;;;19.60;95.00;;;;;;5060298;28;20041;-68
2022/07/01 11:54:55;;;;;;;6.72;2.40;;;18.90;95.80;;;;;;5059539;28;20049;-68
2022/07/01 11:57:23;;;;;;;12.73;2.42;;;19.10;96.00;;;;;;5059126;28;21347;-68
2022/07/01 11:59:50;;;;;;;6.65;1.83;;;20.70;96.70;;;;;;5061295;28;20123;-68
2022/07/01 12:02:18;;;;;;;9.38;2.45;;;19.70;96.40;;;;;;5062213;28;20045;-68
2022/07/01 12:04:44;;;;;;;6.78;1.77;;;19.60;96.30;;;;;;5056520;28;20482;-68
2022/07/01 12:07:12;;;;;;;6.75;1.58;;;20.40;92.40;;;;;;5062690;28;20541;-68
2022/07/01 12:09:38;;;;;;;11.55;1.50;;;20.10;95.30;;;;;;5060602;28;20087;-68
2022/07/01 12:12:05;;;;;;;6.95;1.63;;;20.00;94.70;;;;;;5055254;28;20053;-68
2022/07/01 12:14:35;;;;;;;6.38;1.70;;;20.10;94.50;;;;;;5061753;28;20076;-68
2022/07/01 12:17:04;;;;;;;6.32;1.50;;;21.30;90.00;;;;;;5064469;28;20056;-68
2022/07/01 12:19:40;;;;;;;15.73;2.15;;;20.20;93.60;;;;;;5058427;28;20079;-68
2022/07/01 12:22:09;;;;;;;10.25;1.67;;;21.30;90.40;;;;;;5059382;28;20044;-68
2022/07/01 12:24:34;;;;;;;7.10;1.60;;;20.80;93.70;;;;;;5061747;28;20040;-68
2022/07/01 12:27:02;;;;;;;7.82;1.65;;;;;;;;;;5059900;28;20037;-68
2022/07/01 12:29:30;;;;;;;7.43;1.45;;;21.00;92.60;;;;;;5054624;28;20045;-68
2022/07/01 12:32:06;;;;;;;15.50;1.70;;;22.40;93.00;;;;;;5064930;28;20051;-68
2022/07/01 12:34:43;;;;;;;4.32;1.60;;;22.10;91.50;;;;;;5056343;28;20091;-68
2022/07/01 12:37:15;;;;;;;8.90;1.42;;;22.00;91.50;;;;;;5060585;28;20473;-67
2022/07/01 12:39:44;;;;;;;;;;;21.90;86.20;;;;;;5056605;28;20079;-68
2022/07/01 12:42:20;;;;;;;12.77;1.98;;;22.40;91.90;;;;;;5056529;28;19972;-68
2022/07/01 12:44:46;;;;;;;12.93;2.33;;;22.30;91.70;;;;;;5060316;28;20033;-68
2022/07/01 12:47:24;;;;;;;18.98;1.90;;;22.30;91.80;;;;;;5057507;28;20600;-68
2022/07/01 12:50:07;;;;;;;9.43;1.65;;;21.90;91.80;;;;;;5063030;28;20478;-68
2022/07/01 12:52:33;;;;;;;9.85;1.80;;;22.50;91.90;;;;;;5067352;28;20447;-69
2022/07/01 12:54:59;;;;;;;10.18;1.98;;;20.90;91.30;;;;;;5058505;28;20040;-68
2022/07/01 12:57:31;;;;;;;9.30;2.00;;;21.80;91.90;;;;;;5057879;28;20059;-68
2022/07/01 12:59:58;;;;;;;10.13;1.90;;;21.10;92.20;;;;;;5073215;28;20099;-68
2022/07/01 13:02:24;;;;;;;13.45;2.33;;;21.60;92.80;;;;;;5070791;28;20047;-68
2022/07/01 13:04:49;;;;;;;12.48;1.98;;;21.20;93.00;;;;;;5057480;28;20029;-68
2022/07/01 13:07:16;;;;;;;12.32;1.92;;;;;;;;;;5055349;28;20080;-68
2022/07/01 13:09:41;;;;;;;14.38;1.90;;;21.30;92.80;;;;;;5071983;28;20033;-68
2022/07/01 13:12:07;;;;;;;13.55;2.25;;;20.40;92.60;;;;;;5069863;28;20476;-68
2022/07/01 13:14:33;;;;;;;11.75;2.10;;;21.90;93.10;;;;;;5069236;28;20420;-68
2022/07/01 13:16:59;;;;;;;9.15;1.80;;;21.70;93.40;;;;;;5065041;28;20037;-68
2022/07/01 13:19:25;;;;;;;12.48;1.95;;;21.80;92.70;;;;;;5069163;28;20041;-68
2022/07/01 13:21:51;;;;;;;16.40;2.80;;;;;;;;;;5070599;28;20033;-68
2022/07/01 13:24:16;;;;;;;16.50;2.10;;;21.10;93.50;;;;;;5056333;28;20252;-68
2022/07/01 13:26:42;;;;;;;8.32;1.90;;;;;;;;;;5062714;28;20041;-68
2022/07/01 13:29:08;;;;;;;10.65;2.15;;;;;;;;;;5048794;28;20079;-68
2022/07/01 13:31:34;;;;;;;15.45;2.55;;;21.50;88.40;;;;;;5068115;28;20036;-68
2022/07/01 13:34:00;;;;;;;11.50;2.20;;;;;;;;;;5061032;28;20052;-68